sensor_id;sensor_type;location;lat;lon;timestamp;pressure;altitude;pressure_sealevel;temperature;humidity
32873;BME280;19224;52.462;16.898;2023-10-09T00:00:30;101094.66;;;9.25;94.28
32873;BME280;19224;52.462;16.898;2023-10-09T00:03:12;101101.81;;;9.25;94.44
32873;BME280;19224;52.462;16.898;2023-10-09T00:05:45;101115.73;;;9.40;94.06
32873;BME280;19224;52.462;16.898;2023-10-09T00:08:16;101114.57;;;9.34;94.77
32873;BME280;19224;52.462;16.898;2023-10-09T00:10:57;101104.15;;;9.22;95.00
32873;BME280;19224;52.462;16.898;2023-10-09T00:13:28;101093.42;;;9.21;94.94
32873;BME280;19224;52.462;16.898;2023-10-09T00:16:06;101094.56;;;9.28;94.93
32873;BME280;19224;52.462;16.898;2023-10-09T00:18:42;101080.37;;;9.39;94.76
32873;BME280;19224;52.462;16.898;2023-10-09T00:21:17;101081.56;;;9.45;94.95
32873;BME280;19224;52.462;16.898;2023-10-09T00:23:49;101077.37;;;9.49;94.93
32873;BME280;19224;52.462;16.898;2023-10-09T00:26:25;101080.22;;;9.59;94.81
32873;BME280;19224;52.462;16.898;2023-10-09T00:28:57;101084.77;;;9.57;94.98
32873;BME280;19224;52.462;16.898;2023-10-09T00:31:27;101084.83;;;9.56;94.92
32873;BME280;19224;52.462;16.898;2023-10-09T00:34:02;101084.64;;;9.62;94.82
32873;BME280;19224;52.462;16.898;2023-10-09T00:36:35;101080.51;;;9.65;94.91
32873;BME280;19224;52.462;16.898;2023-10-09T00:39:07;101069.84;;;9.62;95.26
32873;BME280;19224;52.462;16.898;2023-10-09T00:41:39;101060.69;;;9.69;94.76
32873;BME280;19224;52.462;16.898;2023-10-09T00:44:12;101057.62;;;9.66;95.01
32873;BME280;19224;52.462;16.898;2023-10-09T00:46:43;101057.17;;;9.67;95.25
32873;BME280;19224;52.462;16.898;2023-10-09T00:49:15;101057.75;;;9.62;95.73
32873;BME280;19224;52.462;16.898;2023-10-09T00:51:50;101045.28;;;9.74;95.41
32873;BME280;19224;52.462;16.898;2023-10-09T00:54:23;101039.64;;;9.83;95.08
32873;BME280;19224;52.462;16.898;2023-10-09T00:56:57;101039.53;;;9.86;95.02
32873;BME280;19224;52.462;16.898;2023-10-09T00:59:29;101041.30;;;9.87;94.81
32873;BME280;19224;52.462;16.898;2023-10-09T01:02:02;101041.54;;;9.94;94.58
32873;BME280;19224;52.462;16.898;2023-10-09T01:04:35;101041.81;;;9.85;94.89
32873;BME280;19224;52.462;16.898;2023-10-09T01:07:10;101046.64;;;9.88;95.08
32873;BME280;19224;52.462;16.898;2023-10-09T01:09:47;101051.46;;;9.77;95.80
32873;BME280;19224;52.462;16.898;2023-10-09T01:12:20;101042.48;;;9.77;95.90
32873;BME280;19224;52.462;16.898;2023-10-09T01:14:53;101028.59;;;9.77;95.45
32873;BME280;19224;52.462;16.898;2023-10-09T01:17:25;101031.31;;;9.76;95.67
32873;BME280;19224;52.462;16.898;2023-10-09T01:20:10;101028.21;;;9.75;95.94
32873;BME280;19224;52.462;16.898;2023-10-09T01:22:45;101024.80;;;9.84;95.33
32873;BME280;19224;52.462;16.898;2023-10-09T01:25:17;101025.39;;;9.79;95.40
32873;BME280;19224;52.462;16.898;2023-10-09T01:27:49;101030.12;;;9.86;95.26
32873;BME280;19224;52.462;16.898;2023-10-09T01:30:21;101025.50;;;9.91;95.13
32873;BME280;19224;52.462;16.898;2023-10-09T01:32:52;101025.63;;;9.86;95.04
32873;BME280;19224;52.462;16.898;2023-10-09T01:35:22;101021.11;;;9.87;94.96
32873;BME280;19224;52.462;16.898;2023-10-09T01:37:54;101017.84;;;9.92;94.80
32873;BME280;19224;52.462;16.898;2023-10-09T01:40:25;101012.84;;;9.94;94.84
32873;BME280;19224;52.462;16.898;2023-10-09T01:43:00;101021.77;;;9.95;94.71
32873;BME280;19224;52.462;16.898;2023-10-09T01:45:32;101018.15;;;9.96;94.47
32873;BME280;19224;52.462;16.898;2023-10-09T01:48:05;101014.49;;;9.98;94.52
32873;BME280;19224;52.462;16.898;2023-10-09T01:50:36;101005.28;;;10.07;93.90
32873;BME280;19224;52.462;16.898;2023-10-09T01:53:11;100997.62;;;10.08;94.04
32873;BME280;19224;52.462;16.898;2023-10-09T01:55:43;100992.64;;;10.09;94.14
32873;BME280;19224;52.462;16.898;2023-10-09T01:58:14;100984.50;;;10.12;94.32
32873;BME280;19224;52.462;16.898;2023-10-09T02:00:52;100993.06;;;10.10;94.53
32873;BME280;19224;52.462;16.898;2023-10-09T02:03:28;100984.91;;;10.13;94.79
32873;BME280;19224;52.462;16.898;2023-10-09T02:05:58;100972.70;;;10.16;94.68
32873;BME280;19224;52.462;16.898;2023-10-09T02:08:29;100970.30;;;10.20;94.88
32873;BME280;19224;52.462;16.898;2023-10-09T02:11:01;100969.81;;;10.22;94.66
32873;BME280;19224;52.462;16.898;2023-10-09T02:13:32;100960.44;;;10.20;93.92
32873;BME280;19224;52.462;16.898;2023-10-09T02:16:05;100958.05;;;10.24;93.04
32873;BME280;19224;52.462;16.898;2023-10-09T02:18:45;100953.86;;;10.29;92.18
32873;BME280;19224;52.462;16.898;2023-10-09T02:21:29;100956.96;;;10.30;91.55
32873;BME280;19224;52.462;16.898;2023-10-09T02:24:04;100944.39;;;10.30;89.92
32873;BME280;19224;52.462;16.898;2023-10-09T02:26:37;100946.83;;;10.38;89.20
32873;BME280;19224;52.462;16.898;2023-10-09T02:29:09;100941.81;;;10.40;87.68
32873;BME280;19224;52.462;16.898;2023-10-09T02:31:49;100950.34;;;10.40;86.42
32873;BME280;19224;52.462;16.898;2023-10-09T02:34:25;100939.56;;;10.53;85.65
32873;BME280;19224;52.462;16.898;2023-10-09T02:37:00;100945.09;;;10.48;85.19
32873;BME280;19224;52.462;16.898;2023-10-09T02:39:34;100936.67;;;10.59;83.78
32873;BME280;19224;52.462;16.898;2023-10-09T02:42:09;100933.34;;;10.64;83.59
32873;BME280;19224;52.462;16.898;2023-10-09T02:44:42;100926.81;;;10.71;83.09
32873;BME280;19224;52.462;16.898;2023-10-09T02:47:17;100919.14;;;10.72;82.54
32873;BME280;19224;52.462;16.898;2023-10-09T02:49:49;100909.71;;;10.72;81.66
32873;BME280;19224;52.462;16.898;2023-10-09T02:52:21;100907.52;;;10.83;81.01
32873;BME280;19224;52.462;16.898;2023-10-09T02:54:56;100884.08;;;10.85;80.23
32873;BME280;19224;52.462;16.898;2023-10-09T02:57:36;100879.05;;;10.99;79.25
32873;BME280;19224;52.462;16.898;2023-10-09T03:00:08;100861.31;;;11.05;79.35
32873;BME280;19224;52.462;16.898;2023-10-09T03:02:39;100849.88;;;11.10;78.69
32873;BME280;19224;52.462;16.898;2023-10-09T03:05:10;100840.12;;;11.07;78.89
32873;BME280;19224;52.462;16.898;2023-10-09T03:07:41;100835.90;;;11.12;77.98
32873;BME280;19224;52.462;16.898;2023-10-09T03:10:13;100832.19;;;11.14;77.86
32873;BME280;19224;52.462;16.898;2023-10-09T03:12:44;100820.69;;;11.21;77.61
32873;BME280;19224;52.462;16.898;2023-10-09T03:15:14;100822.70;;;11.16;77.35
32873;BME280;19224;52.462;16.898;2023-10-09T03:17:46;100812.59;;;11.21;76.98
32873;BME280;19224;52.462;16.898;2023-10-09T03:20:18;100812.24;;;11.30;76.10
32873;BME280;19224;52.462;16.898;2023-10-09T03:22:48;100801.00;;;11.30;75.35
32873;BME280;19224;52.462;16.898;2023-10-09T03:25:19;100797.00;;;11.40;74.85
32873;BME280;19224;52.462;16.898;2023-10-09T03:27:50;100790.77;;;11.38;74.86
32873;BME280;19224;52.462;16.898;2023-10-09T03:30:23;100786.40;;;11.36;75.07
32873;BME280;19224;52.462;16.898;2023-10-09T03:32:57;100786.31;;;11.37;74.84
32873;BME280;19224;52.462;16.898;2023-10-09T03:35:29;100775.61;;;11.36;74.86
32873;BME280;19224;52.462;16.898;2023-10-09T03:38:01;100773.89;;;11.45;74.78
32873;BME280;19224;52.462;16.898;2023-10-09T03:40:48;100773.32;;;11.37;75.29
32873;BME280;19224;52.462;16.898;2023-10-09T03:43:19;100761.03;;;11.51;75.19
32873;BME280;19224;52.462;16.898;2023-10-09T03:45:50;100761.76;;;11.55;74.74
32873;BME280;19224;52.462;16.898;2023-10-09T03:48:23;100770.73;;;11.57;74.35
32873;BME280;19224;52.462;16.898;2023-10-09T03:50:59;100757.86;;;11.63;74.26
32873;BME280;19224;52.462;16.898;2023-10-09T03:53:42;100762.77;;;11.64;74.68
32873;BME280;19224;52.462;16.898;2023-10-09T03:56:12;100756.73;;;11.69;74.71
32873;BME280;19224;52.462;16.898;2023-10-09T03:58:46;100753.89;;;11.72;74.86
32873;BME280;19224;52.462;16.898;2023-10-09T04:01:21;100749.30;;;11.74;75.33
32873;BME280;19224;52.462;16.898;2023-10-09T04:03:59;100744.30;;;11.75;75.62
32873;BME280;19224;52.462;16.898;2023-10-09T04:06:31;100736.89;;;11.70;76.43
32873;BME280;19224;52.462;16.898;2023-10-09T04:09:07;100739.21;;;11.79;76.17
32873;BME280;19224;52.462;16.898;2023-10-09T04:11:39;100732.27;;;11.83;76.01
32873;BME280;19224;52.462;16.898;2023-10-09T04:14:14;100730.22;;;11.78;76.37
32873;BME280;19224;52.462;16.898;2023-10-09T04:16:46;100724.82;;;11.78;76.96
32873;BME280;19224;52.462;16.898;2023-10-09T04:19:24;100725.72;;;11.79;77.17
32873;BME280;19224;52.462;16.898;2023-10-09T04:21:54;100719.91;;;11.78;77.29
32873;BME280;19224;52.462;16.898;2023-10-09T04:24:26;100728.67;;;11.83;77.31
32873;BME280;19224;52.462;16.898;2023-10-09T04:26:58;100730.43;;;11.84;77.43
32873;BME280;19224;52.462;16.898;2023-10-09T04:29:30;100723.73;;;11.82;77.59
32873;BME280;19224;52.462;16.898;2023-10-09T04:32:11;100721.24;;;11.88;77.51
32873;BME280;19224;52.462;16.898;2023-10-09T04:34:43;100717.09;;;11.91;76.80
32873;BME280;19224;52.462;16.898;2023-10-09T04:37:21;100712.74;;;11.87;76.49
32873;BME280;19224;52.462;16.898;2023-10-09T04:39:59;100721.95;;;12.02;75.72
32873;BME280;19224;52.462;16.898;2023-10-09T04:42:35;100719.65;;;12.03;75.44
32873;BME280;19224;52.462;16.898;2023-10-09T04:45:07;100716.80;;;11.96;74.93
32873;BME280;19224;52.462;16.898;2023-10-09T04:47:40;100713.95;;;11.99;75.01
32873;BME280;19224;52.462;16.898;2023-10-09T04:50:23;100725.59;;;12.01;74.99
32873;BME280;19224;52.462;16.898;2023-10-09T04:53:01;100713.24;;;11.96;75.53
32873;BME280;19224;52.462;16.898;2023-10-09T04:55:46;100699.41;;;12.03;75.79
32873;BME280;19224;52.462;16.898;2023-10-09T04:58:28;100702.64;;;11.92;77.65
32873;BME280;19224;52.462;16.898;2023-10-09T05:00:59;100714.09;;;11.87;78.52
32873;BME280;19224;52.462;16.898;2023-10-09T05:03:31;100705.05;;;11.88;79.49
32873;BME280;19224;52.462;16.898;2023-10-09T05:06:06;100696.16;;;11.95;80.08
32873;BME280;19224;52.462;16.898;2023-10-09T05:08:53;100706.53;;;11.75;82.54
32873;BME280;19224;52.462;16.898;2023-10-09T05:11:24;100707.41;;;11.65;83.56
32873;BME280;19224;52.462;16.898;2023-10-09T05:14:12;100718.34;;;11.62;84.85
32873;BME280;19224;52.462;16.898;2023-10-09T05:16:55;100711.23;;;11.60;85.69
32873;BME280;19224;52.462;16.898;2023-10-09T05:19:28;100706.81;;;11.69;85.42
32873;BME280;19224;52.462;16.898;2023-10-09T05:22:01;100697.10;;;11.53;86.64
32873;BME280;19224;52.462;16.898;2023-10-09T05:24:33;100699.61;;;11.36;88.79
32873;BME280;19224;52.462;16.898;2023-10-09T05:27:05;100704.55;;;11.37;89.49
32873;BME280;19224;52.462;16.898;2023-10-09T05:29:52;100701.11;;;11.22;90.73
32873;BME280;19224;52.462;16.898;2023-10-09T05:32:28;100693.24;;;11.27;91.16
32873;BME280;19224;52.462;16.898;2023-10-09T05:35:04;100694.97;;;11.40;91.17
32873;BME280;19224;52.462;16.898;2023-10-09T05:37:36;100687.56;;;11.35;91.97
32873;BME280;19224;52.462;16.898;2023-10-09T05:40:09;100676.61;;;11.28;93.12
32873;BME280;19224;52.462;16.898;2023-10-09T05:42:46;100670.11;;;11.22;94.04
32873;BME280;19224;52.462;16.898;2023-10-09T05:45:20;100656.90;;;11.16;94.97
32873;BME280;19224;52.462;16.898;2023-10-09T05:48:10;100656.52;;;11.25;95.74
32873;BME280;19224;52.462;16.898;2023-10-09T05:50:43;100662.45;;;11.23;95.86
32873;BME280;19224;52.462;16.898;2023-10-09T05:53:21;100662.19;;;11.29;95.61
32873;BME280;19224;52.462;16.898;2023-10-09T05:56:10;100663.80;;;11.33;95.85
32873;BME280;19224;52.462;16.898;2023-10-09T05:58:58;100651.56;;;11.36;96.39
32873;BME280;19224;52.462;16.898;2023-10-09T06:01:45;100645.34;;;11.44;95.98
32873;BME280;19224;52.462;16.898;2023-10-09T06:04:28;100644.54;;;11.42;96.34
32873;BME280;19224;52.462;16.898;2023-10-09T06:07:05;100646.89;;;11.61;95.50
32873;BME280;19224;52.462;16.898;2023-10-09T06:09:43;100646.91;;;11.71;95.75
32873;BME280;19224;52.462;16.898;2023-10-09T06:12:21;100648.91;;;11.76;95.95
32873;BME280;19224;52.462;16.898;2023-10-09T06:15:06;100643.52;;;11.66;96.27
32873;BME280;19224;52.462;16.898;2023-10-09T06:17:52;100646.91;;;11.71;95.95
32873;BME280;19224;52.462;16.898;2023-10-09T06:20:24;100650.41;;;11.73;96.17
32873;BME280;19224;52.462;16.898;2023-10-09T06:23:11;100643.20;;;11.83;95.98
32873;BME280;19224;52.462;16.898;2023-10-09T06:25:49;100651.21;;;11.94;96.54
32873;BME280;19224;52.462;16.898;2023-10-09T06:28:25;100662.96;;;11.93;96.80
32873;BME280;19224;52.462;16.898;2023-10-09T06:30:56;100663.70;;;12.07;96.50
32873;BME280;19224;52.462;16.898;2023-10-09T06:33:28;100656.66;;;12.03;96.62
32873;BME280;19224;52.462;16.898;2023-10-09T06:36:04;100660.36;;;12.10;96.54
32873;BME280;19224;52.462;16.898;2023-10-09T06:38:35;100638.85;;;12.09;96.04
32873;BME280;19224;52.462;16.898;2023-10-09T06:41:25;100650.30;;;12.24;95.69
32873;BME280;19224;52.462;16.898;2023-10-09T06:44:06;100646.03;;;12.28;95.29
32873;BME280;19224;52.462;16.898;2023-10-09T06:46:38;100652.80;;;12.18;95.14
32873;BME280;19224;52.462;16.898;2023-10-09T06:49:15;100653.78;;;12.36;94.23
32873;BME280;19224;52.462;16.898;2023-10-09T06:51:54;100667.08;;;12.40;93.96
32873;BME280;19224;52.462;16.898;2023-10-09T06:54:21;100670.89;;;12.55;93.33
32873;BME280;19224;52.462;16.898;2023-10-09T06:56:53;100673.63;;;12.63;94.32
32873;BME280;19224;52.462;16.898;2023-10-09T06:59:24;100665.80;;;12.67;94.70
32873;BME280;19224;52.462;16.898;2023-10-09T07:01:56;100671.70;;;12.75;94.99
32873;BME280;19224;52.462;16.898;2023-10-09T07:04:39;100674.13;;;12.81;93.71
32873;BME280;19224;52.462;16.898;2023-10-09T07:07:09;100675.53;;;12.80;93.37
32873;BME280;19224;52.462;16.898;2023-10-09T07:09:48;100665.58;;;12.90;93.21
32873;BME280;19224;52.462;16.898;2023-10-09T07:12:36;100662.98;;;12.60;93.23
32873;BME280;19224;52.462;16.898;2023-10-09T07:15:09;100662.14;;;12.87;93.14
32873;BME280;19224;52.462;16.898;2023-10-09T07:17:55;100665.05;;;13.19;91.97
32873;BME280;19224;52.462;16.898;2023-10-09T07:20:27;100664.02;;;13.13;91.75
32873;BME280;19224;52.462;16.898;2023-10-09T07:23:07;100657.99;;;13.25;91.56
32873;BME280;19224;52.462;16.898;2023-10-09T07:25:44;100655.45;;;13.04;91.39
32873;BME280;19224;52.462;16.898;2023-10-09T07:28:31;100650.61;;;13.37;90.92
32873;BME280;19224;52.462;16.898;2023-10-09T07:31:17;100662.00;;;13.44;90.39
32873;BME280;19224;52.462;16.898;2023-10-09T07:33:51;100654.11;;;13.48;90.11
32873;BME280;19224;52.462;16.898;2023-10-09T07:36:31;100661.66;;;13.33;90.22
32873;BME280;19224;52.462;16.898;2023-10-09T07:39:06;100660.02;;;13.39;90.27
32873;BME280;19224;52.462;16.898;2023-10-09T07:41:38;100667.18;;;13.48;90.02
32873;BME280;19224;52.462;16.898;2023-10-09T07:44:10;100669.52;;;13.73;89.30
32873;BME280;19224;52.462;16.898;2023-10-09T07:46:58;100672.92;;;13.76;89.08
32873;BME280;19224;52.462;16.898;2023-10-09T07:49:46;100664.02;;;13.66;89.70
32873;BME280;19224;52.462;16.898;2023-10-09T07:52:22;100661.87;;;13.55;90.82
32873;BME280;19224;52.462;16.898;2023-10-09T07:54:52;100653.58;;;13.58;90.83
32873;BME280;19224;52.462;16.898;2023-10-09T07:57:24;100638.23;;;13.67;90.25
32873;BME280;19224;52.462;16.898;2023-10-09T07:59:57;100640.43;;;13.76;89.85
32873;BME280;19224;52.462;16.898;2023-10-09T08:02:30;100638.52;;;13.95;88.36
32873;BME280;19224;52.462;16.898;2023-10-09T08:05:04;100639.41;;;13.96;88.61
32873;BME280;19224;52.462;16.898;2023-10-09T08:07:36;100649.24;;;14.14;88.04
32873;BME280;19224;52.462;16.898;2023-10-09T08:10:07;100649.14;;;14.17;87.66
32873;BME280;19224;52.462;16.898;2023-10-09T08:12:49;100650.86;;;14.26;86.72
32873;BME280;19224;52.462;16.898;2023-10-09T08:15:19;100652.45;;;14.13;86.23
32873;BME280;19224;52.462;16.898;2023-10-09T08:17:53;100648.05;;;14.36;85.79
32873;BME280;19224;52.462;16.898;2023-10-09T08:20:27;100642.80;;;14.33;86.25
32873;BME280;19224;52.462;16.898;2023-10-09T08:22:59;100632.21;;;14.29;86.70
32873;BME280;19224;52.462;16.898;2023-10-09T08:25:31;100630.93;;;14.51;85.82
32873;BME280;19224;52.462;16.898;2023-10-09T08:28:04;100658.13;;;14.73;85.13
32873;BME280;19224;52.462;16.898;2023-10-09T08:30:44;100671.27;;;14.81;84.69
32873;BME280;19224;52.462;16.898;2023-10-09T08:33:35;100667.27;;;14.79;83.77
32873;BME280;19224;52.462;16.898;2023-10-09T08:36:08;100664.91;;;14.73;82.38
32873;BME280;19224;52.462;16.898;2023-10-09T08:38:40;100644.55;;;14.58;82.82
32873;BME280;19224;52.462;16.898;2023-10-09T08:41:12;100624.52;;;14.37;83.96
32873;BME280;19224;52.462;16.898;2023-10-09T08:43:53;100635.42;;;14.43;84.07
32873;BME280;19224;52.462;16.898;2023-10-09T08:46:27;100632.78;;;14.50;84.50
32873;BME280;19224;52.462;16.898;2023-10-09T08:48:59;100620.23;;;14.56;85.12
32873;BME280;19224;52.462;16.898;2023-10-09T08:51:31;100622.45;;;14.81;84.41
32873;BME280;19224;52.462;16.898;2023-10-09T08:54:04;100622.06;;;14.95;83.12
32873;BME280;19224;52.462;16.898;2023-10-09T08:56:38;100618.13;;;15.08;81.48
32873;BME280;19224;52.462;16.898;2023-10-09T08:59:10;100619.16;;;15.14;80.86
32873;BME280;19224;52.462;16.898;2023-10-09T09:01:46;100622.52;;;15.10;81.77
32873;BME280;19224;52.462;16.898;2023-10-09T09:07:27;100626.58;;;15.26;82.87
32873;BME280;19224;52.462;16.898;2023-10-09T09:10:00;100627.33;;;15.59;81.37
32873;BME280;19224;52.462;16.898;2023-10-09T09:12:39;100627.20;;;15.31;82.61
32873;BME280;19224;52.462;16.898;2023-10-09T09:15:15;100624.56;;;15.29;83.56
32873;BME280;19224;52.462;16.898;2023-10-09T09:17:49;100637.72;;;15.44;82.77
32873;BME280;19224;52.462;16.898;2023-10-09T09:20:24;100635.91;;;15.67;80.08
32873;BME280;19224;52.462;16.898;2023-10-09T09:22:57;100636.55;;;15.93;79.01
32873;BME280;19224;52.462;16.898;2023-10-09T09:25:45;100631.52;;;16.01;78.23
32873;BME280;19224;52.462;16.898;2023-10-09T09:28:18;100631.72;;;16.19;77.41
32873;BME280;19224;52.462;16.898;2023-10-09T09:30:50;100629.58;;;16.03;77.03
32873;BME280;19224;52.462;16.898;2023-10-09T09:33:26;100635.92;;;16.17;76.06
32873;BME280;19224;52.462;16.898;2023-10-09T09:36:03;100624.54;;;16.18;75.76
32873;BME280;19224;52.462;16.898;2023-10-09T09:38:36;100626.92;;;16.38;74.77
32873;BME280;19224;52.462;16.898;2023-10-09T09:41:20;100621.69;;;16.56;73.59
32873;BME280;19224;52.462;16.898;2023-10-09T09:44:00;100607.30;;;16.61;72.60
32873;BME280;19224;52.462;16.898;2023-10-09T09:46:34;100613.03;;;16.56;70.87
32873;BME280;19224;52.462;16.898;2023-10-09T09:49:06;100612.36;;;16.39;71.49
32873;BME280;19224;52.462;16.898;2023-10-09T09:51:39;100601.28;;;16.49;69.93
32873;BME280;19224;52.462;16.898;2023-10-09T09:54:11;100607.86;;;16.24;70.62
32873;BME280;19224;52.462;16.898;2023-10-09T09:56:45;100611.19;;;16.50;70.25
32873;BME280;19224;52.462;16.898;2023-10-09T09:59:25;100603.77;;;16.31;70.27
32873;BME280;19224;52.462;16.898;2023-10-09T10:02:00;100593.72;;;16.47;69.60
32873;BME280;19224;52.462;16.898;2023-10-09T10:04:41;100599.49;;;16.20;70.10
32873;BME280;19224;52.462;16.898;2023-10-09T10:07:13;100594.21;;;16.39;68.72
32873;BME280;19224;52.462;16.898;2023-10-09T10:09:45;100605.17;;;16.38;68.53
32873;BME280;19224;52.462;16.898;2023-10-09T10:15:10;100604.00;;;16.42;68.88
32873;BME280;19224;52.462;16.898;2023-10-09T10:20:34;100610.88;;;16.75;67.48
32873;BME280;19224;52.462;16.898;2023-10-09T10:23:17;100611.82;;;16.81;67.14
32873;BME280;19224;52.462;16.898;2023-10-09T10:25:53;100603.70;;;16.74;67.52
32873;BME280;19224;52.462;16.898;2023-10-09T10:28:29;100608.80;;;16.86;66.56
32873;BME280;19224;52.462;16.898;2023-10-09T10:31:10;100603.36;;;16.86;66.15
32873;BME280;19224;52.462;16.898;2023-10-09T10:36:34;100606.70;;;16.63;64.94
32873;BME280;19224;52.462;16.898;2023-10-09T10:39:06;100605.81;;;16.69;65.24
32873;BME280;19224;52.462;16.898;2023-10-09T10:41:57;100604.56;;;16.54;64.95
32873;BME280;19224;52.462;16.898;2023-10-09T10:44:33;100606.50;;;16.73;64.22
32873;BME280;19224;52.462;16.898;2023-10-09T10:47:07;100603.17;;;16.33;65.68
32873;BME280;19224;52.462;16.898;2023-10-09T10:49:43;100610.58;;;16.24;66.09
32873;BME280;19224;52.462;16.898;2023-10-09T10:52:25;100602.81;;;16.11;66.97
32873;BME280;19224;52.462;16.898;2023-10-09T10:55:16;100615.61;;;16.16;66.97
32873;BME280;19224;52.462;16.898;2023-10-09T10:57:48;100602.51;;;16.08;67.00
32873;BME280;19224;52.462;16.898;2023-10-09T11:00:33;100596.97;;;16.03;67.19
32873;BME280;19224;52.462;16.898;2023-10-09T11:03:22;100599.86;;;15.93;67.51
32873;BME280;19224;52.462;16.898;2023-10-09T11:06:04;100598.32;;;15.89;68.22
32873;BME280;19224;52.462;16.898;2023-10-09T11:08:36;100594.02;;;15.85;68.34
32873;BME280;19224;52.462;16.898;2023-10-09T11:11:13;100587.40;;;15.75;69.29
32873;BME280;19224;52.462;16.898;2023-10-09T11:13:48;100598.27;;;15.68;69.46
32873;BME280;19224;52.462;16.898;2023-10-09T11:16:26;100598.89;;;15.50;70.26
32873;BME280;19224;52.462;16.898;2023-10-09T11:19:20;100578.53;;;15.57;69.96
32873;BME280;19224;52.462;16.898;2023-10-09T11:21:58;100583.50;;;15.58;70.15
32873;BME280;19224;52.462;16.898;2023-10-09T11:24:35;100584.66;;;15.61;70.61
32873;BME280;19224;52.462;16.898;2023-10-09T11:27:09;100583.54;;;15.86;69.96
32873;BME280;19224;52.462;16.898;2023-10-09T11:29:48;100581.42;;;15.98;69.22
32873;BME280;19224;52.462;16.898;2023-10-09T11:32:22;100570.45;;;15.92;67.60
32873;BME280;19224;52.462;16.898;2023-10-09T11:35:14;100558.11;;;15.73;66.67
32873;BME280;19224;52.462;16.898;2023-10-09T11:37:58;100558.55;;;16.02;66.39
32873;BME280;19224;52.462;16.898;2023-10-09T11:40:33;100552.89;;;16.33;65.93
32873;BME280;19224;52.462;16.898;2023-10-09T11:43:21;100539.89;;;16.52;65.78
32873;BME280;19224;52.462;16.898;2023-10-09T11:46:09;100540.87;;;16.58;65.31
32873;BME280;19224;52.462;16.898;2023-10-09T11:48:44;100547.62;;;16.72;64.65
32873;BME280;19224;52.462;16.898;2023-10-09T11:51:19;100550.09;;;16.55;64.77
32873;BME280;19224;52.462;16.898;2023-10-09T11:53:50;100546.98;;;16.61;64.95
32873;BME280;19224;52.462;16.898;2023-10-09T11:56:25;100549.03;;;16.51;65.00
32873;BME280;19224;52.462;16.898;2023-10-09T11:58:56;100545.83;;;16.37;65.16
32873;BME280;19224;52.462;16.898;2023-10-09T12:01:28;100548.26;;;16.42;65.06
32873;BME280;19224;52.462;16.898;2023-10-09T12:04:02;100550.38;;;16.30;65.99
32873;BME280;19224;52.462;16.898;2023-10-09T12:06:32;100548.42;;;16.32;65.93
32873;BME280;19224;52.462;16.898;2023-10-09T12:09:04;100550.03;;;16.36;65.69
32873;BME280;19224;52.462;16.898;2023-10-09T12:11:35;100539.30;;;16.61;64.79
32873;BME280;19224;52.462;16.898;2023-10-09T12:14:05;100531.14;;;16.68;64.13
32873;BME280;19224;52.462;16.898;2023-10-09T12:16:35;100512.90;;;16.82;63.63
32873;BME280;19224;52.462;16.898;2023-10-09T12:19:07;100501.91;;;16.91;63.63
32873;BME280;19224;52.462;16.898;2023-10-09T12:21:38;100508.33;;;16.90;64.15
32873;BME280;19224;52.462;16.898;2023-10-09T12:24:10;100507.21;;;17.18;63.20
32873;BME280;19224;52.462;16.898;2023-10-09T12:26:41;100505.91;;;17.11;63.16
32873;BME280;19224;52.462;16.898;2023-10-09T12:29:12;100497.28;;;17.24;62.51
32873;BME280;19224;52.462;16.898;2023-10-09T12:31:43;100476.26;;;17.26;62.58
32873;BME280;19224;52.462;16.898;2023-10-09T12:34:15;100475.66;;;17.28;62.29
32873;BME280;19224;52.462;16.898;2023-10-09T12:36:46;100480.70;;;17.34;61.21
32873;BME280;19224;52.462;16.898;2023-10-09T12:39:18;100499.42;;;17.19;62.23
32873;BME280;19224;52.462;16.898;2023-10-09T12:41:49;100495.25;;;17.21;62.11
32873;BME280;19224;52.462;16.898;2023-10-09T12:44:24;100502.20;;;17.12;62.27
32873;BME280;19224;52.462;16.898;2023-10-09T12:46:57;100506.78;;;17.05;62.70
32873;BME280;19224;52.462;16.898;2023-10-09T12:49:29;100515.30;;;16.93;63.92
32873;BME280;19224;52.462;16.898;2023-10-09T12:51:59;100497.06;;;16.89;64.10
32873;BME280;19224;52.462;16.898;2023-10-09T12:54:30;100500.50;;;16.97;63.60
32873;BME280;19224;52.462;16.898;2023-10-09T12:57:00;100498.69;;;17.10;62.40
32873;BME280;19224;52.462;16.898;2023-10-09T12:59:32;100494.80;;;16.69;63.48
32873;BME280;19224;52.462;16.898;2023-10-09T13:02:04;100492.78;;;16.85;63.94
32873;BME280;19224;52.462;16.898;2023-10-09T13:04:35;100502.73;;;16.79;64.32
32873;BME280;19224;52.462;16.898;2023-10-09T13:07:12;100508.48;;;16.74;64.68
32873;BME280;19224;52.462;16.898;2023-10-09T13:09:44;100499.09;;;16.59;65.57
32873;BME280;19224;52.462;16.898;2023-10-09T13:12:16;100484.95;;;16.40;66.30
32873;BME280;19224;52.462;16.898;2023-10-09T13:14:48;100498.28;;;16.16;67.68
32873;BME280;19224;52.462;16.898;2023-10-09T13:17:18;100494.00;;;16.40;66.96
32873;BME280;19224;52.462;16.898;2023-10-09T13:19:50;100502.84;;;16.37;67.35
32873;BME280;19224;52.462;16.898;2023-10-09T13:22:21;100500.30;;;16.27;67.24
32873;BME280;19224;52.462;16.898;2023-10-09T13:24:52;100487.28;;;16.18;67.18
32873;BME280;19224;52.462;16.898;2023-10-09T13:27:29;100485.75;;;15.86;68.87
32873;BME280;19224;52.462;16.898;2023-10-09T13:30:02;100489.84;;;16.00;68.36
32873;BME280;19224;52.462;16.898;2023-10-09T13:32:33;100487.90;;;16.02;68.10